Time,TemperatureF,DewpointF,PressureIn,WindDirection,WindDirectionDegrees,WindSpeedMPH,WindSpeedGustMPH,Humidity,HourlyPrecipIn,Conditions,Clouds,dailyrainin,SoftwareType,DateUTC
2013-04-04 00:10:00,48.8,30.0,31.89,NNW,338,8.0,16.0,49,0.00,,,0.00,weatherlink.com 1.10,2013-04-04 06:10:00,
2013-04-04 00:25:00,48.7,30.0,31.89,NW,319,9.0,14.0,49,0.00,,,0.00,weatherlink.com 1.10,2013-04-04 06:25:00,
2013-04-04 00:40:00,48.7,30.0,31.88,NNW,338,13.0,16.0,48,0.00,,,0.00,weatherlink.com 1.10,2013-04-04 06:40:00,
2013-04-04 00:55:00,48.5,30.0,31.89,NNW,338,12.0,15.0,49,0.00,,,0.00,weatherlink.com 1.10,2013-04-04 06:55:00,
2013-04-04 01:10:00,48.4,29.0,31.88,NW,317,9.0,15.0,48,0.00,,,0.00,weatherlink.com 1.10,2013-04-04 07:10:00,
2013-04-04 01:25:00,48.5,29.0,31.89,West,281,8.0,15.0,48,0.00,,,0.00,weatherlink.com 1.10,2013-04-04 07:25:00,
2013-04-04 01:40:00,48.5,29.0,31.89,West,263,0.0,10.0,48,0.00,,,0.00,weatherlink.com 1.10,2013-04-04 07:40:00,
2013-04-04 01:55:00,47.5,30.0,31.90,ENE,71,0.0,2.0,50,0.00,,,0.00,weatherlink.com 1.10,2013-04-04 07:55:00,
2013-04-04 02:10:00,47.2,30.0,31.89,East,97,0.0,3.0,52,0.00,,,0.00,weatherlink.com 1.10,2013-04-04 08:10:00,
2013-04-04 02:25:00,47.1,30.0,31.89,ENE,74,0.0,4.0,51,0.00,,,0.00,weatherlink.com 1.10,2013-04-04 08:25:00,
2013-04-04 02:40:00,46.2,29.0,31.89,NW,304,0.0,3.0,52,0.00,,,0.00,weatherlink.com 1.10,2013-04-04 08:40:00,
2013-04-04 02:55:00,45.8,29.0,31.89,NW,304,0.0,2.0,53,0.00,,,0.00,weatherlink.com 1.10,2013-04-04 08:55:00,
2013-04-04 03:10:00,45.7,30.0,31.90,NW,304,0.0,1.0,54,0.00,,,0.00,weatherlink.com 1.10,2013-04-04 09:10:00,
2013-04-04 03:25:00,45.4,29.0,31.89,NW,304,0.0,2.0,54,0.00,,,0.00,weatherlink.com 1.10,2013-04-04 09:25:00,
2013-04-04 03:40:00,45.8,30.0,31.89,NW,304,0.0,2.0,54,0.00,,,0.00,weatherlink.com 1.10,2013-04-04 09:40:00,
2013-04-04 04:10:00,46.0,30.0,31.89,ENE,62,3.0,3.0,55,0.00,,,0.00,weatherlink.com 1.10,2013-04-04 10:10:00,
2013-04-04 04:25:00,45.8,31.0,31.89,ENE,67,4.0,4.0,56,0.00,,,0.00,weatherlink.com 1.10,2013-04-04 10:25:00,
2013-04-04 04:40:00,45.5,31.0,31.88,East,80,2.0,4.0,58,0.00,,,0.00,weatherlink.com 1.10,2013-04-04 10:40:00,
2013-04-04 04:55:00,44.9,31.0,31.88,East,84,2.0,3.0,58,0.00,,,0.00,weatherlink.com 1.10,2013-04-04 10:55:00,
2013-04-04 05:10:00,44.9,31.0,31.88,East,83,1.0,3.0,58,0.00,,,0.00,weatherlink.com 1.10,2013-04-04 11:10:00,
2013-04-04 05:25:00,44.7,31.0,31.88,East,83,0.0,2.0,58,0.00,,,0.00,weatherlink.com 1.10,2013-04-04 11:25:00,
2013-04-04 05:40:00,44.4,31.0,31.88,East,83,0.0,1.0,59,0.00,,,0.00,weatherlink.com 1.10,2013-04-04 11:40:00,
2013-04-04 05:55:00,44.8,31.0,31.87,East,83,0.0,1.0,58,0.00,,,0.00,weatherlink.com 1.10,2013-04-04 11:55:00,
2013-04-04 06:10:00,45.0,30.0,31.87,East,83,2.0,2.0,57,0.00,,,0.00,weatherlink.com 1.10,2013-04-04 12:10:00,
2013-04-04 06:25:00,44.3,30.0,31.87,East,85,0.0,2.0,58,0.00,,,0.00,weatherlink.com 1.10,2013-04-04 12:25:00,
2013-04-04 06:40:00,43.7,30.0,31.87,East,101,2.0,6.0,60,0.00,,,0.00,weatherlink.com 1.10,2013-04-04 12:40:00,
2013-04-04 06:55:00,43.1,31.0,31.87,East,101,3.0,3.0,62,0.00,,,0.00,weatherlink.com 1.10,2013-04-04 12:55:00,
2013-04-04 07:10:00,42.8,31.0,31.87,East,98,2.0,5.0,63,0.00,,,0.00,weatherlink.com 1.10,2013-04-04 13:10:00,
2013-04-04 07:25:00,42.2,31.0,31.86,East,88,3.0,6.0,64,0.00,,,0.00,weatherlink.com 1.10,2013-04-04 13:25:00,
2013-04-04 07:40:00,42.0,31.0,31.86,ENE,76,3.0,7.0,66,0.00,,,0.00,weatherlink.com 1.10,2013-04-04 13:40:00,
2013-04-04 07:56:00,42.9,32.0,31.86,East,94,5.0,5.0,65,0.00,,,0.00,weatherlink.com 1.10,2013-04-04 13:56:00,
2013-04-04 08:11:00,43.7,33.0,31.86,East,99,3.0,7.0,65,0.00,,,0.00,weatherlink.com 1.10,2013-04-04 14:11:00,
2013-04-04 08:26:00,44.4,33.0,31.86,ESE,108,4.0,7.0,64,0.00,,,0.00,weatherlink.com 1.10,2013-04-04 14:26:00,
2013-04-04 09:11:00,43.1,33.0,31.85,SE,137,6.0,9.0,68,0.00,,,0.00,weatherlink.com 1.10,2013-04-04 15:11:00,
2013-04-04 09:27:00,43.1,34.0,31.84,SE,128,8.0,8.0,70,0.00,,,0.00,weatherlink.com 1.10,2013-04-04 15:27:00,
2013-04-04 09:41:00,43.6,34.0,31.84,SE,128,6.0,9.0,69,0.00,,,0.00,weatherlink.com 1.10,2013-04-04 15:41:00,
2013-04-04 09:56:00,44.5,35.0,31.84,ESE,103,4.0,9.0,69,0.00,,,0.00,weatherlink.com 1.10,2013-04-04 15:56:00,
2013-04-04 10:41:00,46.5,36.0,31.82,ESE,115,5.0,8.0,66,0.00,,,0.00,weatherlink.com 1.10,2013-04-04 16:41:00,
2013-04-04 10:56:00,45.9,37.0,31.82,SE,132,6.0,7.0,70,0.00,,,0.00,weatherlink.com 1.10,2013-04-04 16:56:00,
2013-04-04 11:11:00,48.0,35.0,31.81,SE,136,6.0,10.0,62,0.00,,,0.00,weatherlink.com 1.10,2013-04-04 17:11:00,
2013-04-04 11:26:00,48.9,34.0,31.80,SE,144,6.0,11.0,58,0.00,,,0.00,weatherlink.com 1.10,2013-04-04 17:26:00,
2013-04-04 11:41:00,49.5,35.0,31.79,SSE,155,9.0,11.0,58,0.00,,,0.00,weatherlink.com 1.10,2013-04-04 17:41:00,
2013-04-04 11:56:00,51.0,35.0,31.78,SE,129,7.0,13.0,54,0.00,,,0.00,weatherlink.com 1.10,2013-04-04 17:56:00,
2013-04-04 12:11:00,51.8,32.0,31.77,ESE,112,4.0,13.0,47,0.00,,,0.00,weatherlink.com 1.10,2013-04-04 18:11:00,
2013-04-04 12:26:00,51.6,33.0,31.75,SE,129,5.0,12.0,50,0.00,,,0.00,weatherlink.com 1.10,2013-04-04 18:26:00,
2013-04-04 12:41:00,53.4,35.0,31.74,SE,138,6.0,12.0,51,0.00,,,0.00,weatherlink.com 1.10,2013-04-04 18:41:00,
2013-04-04 12:56:00,55.0,34.0,31.72,SSE,147,8.0,14.0,45,0.00,,,0.00,weatherlink.com 1.10,2013-04-04 18:56:00,
2013-04-04 13:12:00,54.3,33.0,31.71,SE,127,5.0,13.0,45,0.00,,,0.00,weatherlink.com 1.10,2013-04-04 19:12:00,
2013-04-04 13:27:00,55.9,35.0,31.70,ESE,119,2.0,10.0,46,0.00,,,0.00,weatherlink.com 1.10,2013-04-04 19:27:00,
2013-04-04 13:42:00,55.1,34.0,31.69,SSE,149,5.0,11.0,46,0.00,,,0.00,weatherlink.com 1.10,2013-04-04 19:42:00,
2013-04-04 14:01:00,55.3,35.0,31.67,SE,140,12.0,13.0,46,0.00,,,0.00,weatherlink.com 1.10,2013-04-04 20:01:00,
2013-04-04 14:12:00,54.8,34.0,31.67,SE,140,5.0,11.0,45,0.00,,,0.00,weatherlink.com 1.10,2013-04-04 20:12:00,
2013-04-04 14:27:00,55.5,34.0,31.67,SE,130,6.0,10.0,45,0.00,,,0.00,weatherlink.com 1.10,2013-04-04 20:27:00,
2013-04-04 14:42:00,56.5,36.0,31.66,SE,146,3.0,11.0,46,0.00,,,0.00,weatherlink.com 1.10,2013-04-04 20:42:00,
2013-04-04 14:57:00,56.7,36.0,31.66,SSE,156,3.0,10.0,47,0.00,,,0.00,weatherlink.com 1.10,2013-04-04 20:57:00,
2013-04-04 15:12:00,55.9,35.0,31.66,SSE,163,6.0,11.0,46,0.00,,,0.00,weatherlink.com 1.10,2013-04-04 21:12:00,
2013-04-04 15:42:00,56.0,35.0,31.64,SSW,205,6.0,10.0,45,0.00,,,0.00,weatherlink.com 1.10,2013-04-04 21:42:00,
2013-04-04 15:57:00,55.7,36.0,31.63,West,273,4.0,10.0,47,0.00,,,0.00,weatherlink.com 1.10,2013-04-04 21:57:00,
2013-04-04 16:12:00,55.7,36.0,31.62,WSW,251,3.0,5.0,47,0.00,,,0.00,weatherlink.com 1.10,2013-04-04 22:12:00,
2013-04-04 16:27:00,55.7,36.0,31.61,WSW,254,6.0,9.0,47,0.00,,,0.00,weatherlink.com 1.10,2013-04-04 22:27:00,
2013-04-04 16:42:00,56.3,37.0,31.60,SSW,208,3.0,6.0,48,0.00,,,0.00,weatherlink.com 1.10,2013-04-04 22:42:00,
2013-04-04 16:57:00,56.4,36.0,31.60,SSE,150,15.0,16.0,47,0.00,,,0.00,weatherlink.com 1.10,2013-04-04 22:57:00,
2013-04-04 17:12:00,55.7,36.0,31.60,SSE,159,11.0,14.0,48,0.00,,,0.00,weatherlink.com 1.10,2013-04-04 23:12:00,
2013-04-04 17:27:00,55.3,37.0,31.60,SSE,155,11.0,14.0,50,0.00,,,0.00,weatherlink.com 1.10,2013-04-04 23:27:00,
2013-04-04 17:42:00,55.0,37.0,31.60,SE,138,8.0,13.0,52,0.00,,,0.00,weatherlink.com 1.10,2013-04-04 23:42:00,
2013-04-04 17:57:00,54.9,38.0,31.60,SSE,164,6.0,12.0,53,0.00,,,0.00,weatherlink.com 1.10,2013-04-04 23:57:00,
2013-04-04 18:12:00,54.7,38.0,31.59,SSE,159,6.0,9.0,54,0.00,,,0.00,weatherlink.com 1.10,2013-04-05 00:12:00,
2013-04-04 18:27:00,54.6,38.0,31.59,South,174,6.0,8.0,54,0.00,,,0.00,weatherlink.com 1.10,2013-04-05 00:27:00,
2013-04-04 18:43:00,53.1,38.0,31.59,NW,321,12.0,15.0,58,0.00,,,0.00,weatherlink.com 1.10,2013-04-05 00:43:00,
2013-04-04 18:57:00,52.6,39.0,31.59,NW,325,0.0,4.0,60,0.00,,,0.00,weatherlink.com 1.10,2013-04-05 00:57:00,
2013-04-04 19:12:00,51.7,39.0,31.59,North,5,6.0,11.0,63,0.00,,,0.00,weatherlink.com 1.10,2013-04-05 01:12:00,
2013-04-04 19:27:00,51.2,39.0,31.59,NNW,336,9.0,10.0,63,0.00,,,0.00,weatherlink.com 1.10,2013-04-05 01:27:00,
2013-04-04 19:42:00,50.9,39.0,31.58,NW,317,0.0,10.0,63,0.00,,,0.00,weatherlink.com 1.10,2013-04-05 01:42:00,
2013-04-04 19:57:00,51.5,38.0,31.58,ESE,111,2.0,9.0,61,0.00,,,0.00,weatherlink.com 1.10,2013-04-05 01:57:00,
2013-04-04 20:12:00,51.4,38.0,31.59,SE,128,4.0,6.0,61,0.00,,,0.00,weatherlink.com 1.10,2013-04-05 02:12:00,
2013-04-04 20:27:00,50.9,39.0,31.58,SE,130,6.0,7.0,63,0.00,,,0.00,weatherlink.com 1.10,2013-04-05 02:27:00,
2013-04-04 20:42:00,49.9,38.0,31.58,ESE,120,7.0,12.0,65,0.00,,,0.00,weatherlink.com 1.10,2013-04-05 02:42:00,
2013-04-04 20:57:00,49.4,39.0,31.58,SE,125,12.0,15.0,68,0.00,,,0.00,weatherlink.com 1.10,2013-04-05 02:57:00,
2013-04-04 21:12:00,49.1,39.0,31.59,ESE,115,10.0,12.0,69,0.00,,,0.00,weatherlink.com 1.10,2013-04-05 03:12:00,
2013-04-04 21:27:00,48.7,39.0,31.60,SE,142,4.0,13.0,70,0.00,,,0.00,weatherlink.com 1.10,2013-04-05 03:27:00,
2013-04-04 21:42:00,48.1,39.0,31.61,SE,128,6.0,14.0,72,0.00,,,0.00,weatherlink.com 1.10,2013-04-05 03:42:00,
2013-04-04 21:57:00,47.9,39.0,31.62,SSE,147,7.0,12.0,72,0.00,,,0.00,weatherlink.com 1.10,2013-04-05 03:57:00,
2013-04-04 22:12:00,47.7,39.0,31.62,SE,130,3.0,8.0,72,0.00,,,0.00,weatherlink.com 1.10,2013-04-05 04:12:00,
2013-04-04 22:27:00,47.6,39.0,31.62,South,186,2.0,9.0,73,0.00,,,0.00,weatherlink.com 1.10,2013-04-05 04:27:00,
2013-04-04 22:42:00,47.2,39.0,31.62,SSE,155,1.0,6.0,73,0.00,,,0.00,weatherlink.com 1.10,2013-04-05 04:42:00,
2013-04-04 22:57:00,46.5,39.0,31.63,SE,132,3.0,7.0,76,0.00,,,0.00,weatherlink.com 1.10,2013-04-05 04:57:00,
2013-04-04 23:12:00,46.2,39.0,31.63,ESE,117,0.0,5.0,76,0.00,,,0.00,weatherlink.com 1.10,2013-04-05 05:12:00,
2013-04-04 23:27:00,45.8,40.0,31.63,ESE,109,2.0,5.0,79,0.00,,,0.00,weatherlink.com 1.10,2013-04-05 05:27:00,
2013-04-04 23:57:00,45.8,39.0,31.61,SE,128,6.0,10.0,78,0.00,,,0.00,weatherlink.com 1.10,2013-04-05 05:57:00,